sensor_id;sensor_type;location;lat;lon;timestamp;pressure;altitude;pressure_sealevel;temperature;humidity
15444;BME280;7822;48.146;11.576;2023-04-07T00:00:05;95123.28;;;14.61;56.22
15444;BME280;7822;48.146;11.576;2023-04-07T00:02:33;95120.69;;;14.61;56.38
15444;BME280;7822;48.146;11.576;2023-04-07T00:05:02;95120.69;;;14.61;56.32
15444;BME280;7822;48.146;11.576;2023-04-07T00:07:30;95125.91;;;14.61;56.20
15444;BME280;7822;48.146;11.576;2023-04-07T00:10:10;95120.69;;;14.61;56.29
15444;BME280;7822;48.146;11.576;2023-04-07T00:12:52;95120.69;;;14.61;56.42
15444;BME280;7822;48.146;11.576;2023-04-07T00:21:08;95121.69;;;14.60;56.38
15444;BME280;7822;48.146;11.576;2023-04-07T02:28:01;95076.09;;;14.54;56.69
15444;BME280;7822;48.146;11.576;2023-04-07T02:30:29;95077.91;;;14.54;56.75
15444;BME280;7822;48.146;11.576;2023-04-07T02:32:57;95076.91;;;14.55;56.85
15444;BME280;7822;48.146;11.576;2023-04-07T02:35:24;95079.69;;;14.53;56.67
15444;BME280;7822;48.146;11.576;2023-04-07T02:37:52;95073.47;;;14.54;56.47
15444;BME280;7822;48.146;11.576;2023-04-07T02:40:20;95074.31;;;14.55;56.85
15444;BME280;7822;48.146;11.576;2023-04-07T02:42:47;95080.34;;;14.55;56.80
15444;BME280;7822;48.146;11.576;2023-04-07T02:45:16;95073.47;;;14.54;56.85
15444;BME280;7822;48.146;11.576;2023-04-07T02:47:44;95075.13;;;14.55;56.80
15444;BME280;7822;48.146;11.576;2023-04-07T02:50:12;95065.66;;;14.54;56.54
15444;BME280;7822;48.146;11.576;2023-04-07T02:52:39;95070.75;;;14.56;56.80
15444;BME280;7822;48.146;11.576;2023-04-07T02:55:08;95072.53;;;14.55;57.03
15444;BME280;7822;48.146;11.576;2023-04-07T02:57:35;95070.75;;;14.56;56.79
15444;BME280;7822;48.146;11.576;2023-04-07T03:00:04;95065.53;;;14.56;57.10
15444;BME280;7822;48.146;11.576;2023-04-07T03:02:33;95075.13;;;14.55;56.86
15444;BME280;7822;48.146;11.576;2023-04-07T03:05:01;95069.09;;;14.55;56.67
15444;BME280;7822;48.146;11.576;2023-04-07T03:07:29;95064.69;;;14.55;57.08
15444;BME280;7822;48.146;11.576;2023-04-07T03:09:57;95067.31;;;14.55;56.84
15444;BME280;7822;48.146;11.576;2023-04-07T03:12:25;95056.03;;;14.55;56.89
15444;BME280;7822;48.146;11.576;2023-04-07T03:14:53;95062.09;;;14.55;56.72
15444;BME280;7822;48.146;11.576;2023-04-07T03:17:21;95063.88;;;14.55;56.80
15444;BME280;7822;48.146;11.576;2023-04-07T03:19:50;95055.22;;;14.54;56.88
15444;BME280;7822;48.146;11.576;2023-04-07T03:22:18;95066.47;;;14.55;56.86
15444;BME280;7822;48.146;11.576;2023-04-07T03:24:45;95062.25;;;14.54;56.90
15444;BME280;7822;48.146;11.576;2023-04-07T03:27:13;95056.03;;;14.55;57.06
15444;BME280;7822;48.146;11.576;2023-04-07T03:29:42;95051.81;;;14.54;56.94
15444;BME280;7822;48.146;11.576;2023-04-07T03:32:10;95054.41;;;14.54;56.78
15444;BME280;7822;48.146;11.576;2023-04-07T03:34:38;95051.81;;;14.54;56.75
15444;BME280;7822;48.146;11.576;2023-04-07T03:37:07;95035.31;;;14.53;56.96
15444;BME280;7822;48.146;11.576;2023-04-07T03:39:34;95044.75;;;14.54;56.94
15444;BME280;7822;48.146;11.576;2023-04-07T03:42:02;95041.38;;;14.54;56.84
15444;BME280;7822;48.146;11.576;2023-04-07T03:44:30;95039.53;;;14.54;56.94
15444;BME280;7822;48.146;11.576;2023-04-07T03:46:59;95037.91;;;14.53;57.03
15444;BME280;7822;48.146;11.576;2023-04-07T03:49:26;95035.31;;;14.53;56.71
15444;BME280;7822;48.146;11.576;2023-04-07T03:51:54;95035.31;;;14.53;56.90
15444;BME280;7822;48.146;11.576;2023-04-07T03:54:23;95035.31;;;14.53;57.16
15444;BME280;7822;48.146;11.576;2023-04-07T03:56:51;95030.91;;;14.54;56.86
15444;BME280;7822;48.146;11.576;2023-04-07T03:59:19;95037.91;;;14.53;56.97
15444;BME280;7822;48.146;11.576;2023-04-07T04:01:46;95027.47;;;14.53;56.72
15444;BME280;7822;48.146;11.576;2023-04-07T04:04:14;95037.75;;;14.55;56.89
15444;BME280;7822;48.146;11.576;2023-04-07T04:06:42;95030.91;;;14.54;56.68
15444;BME280;7822;48.146;11.576;2023-04-07T04:09:10;95031.72;;;14.54;56.81
15444;BME280;7822;48.146;11.576;2023-04-07T04:11:39;95032.38;;;14.56;56.68
15444;BME280;7822;48.146;11.576;2023-04-07T04:14:06;95033.38;;;14.55;56.97
15444;BME280;7822;48.146;11.576;2023-04-07T04:16:34;95027.97;;;14.57;56.88
15444;BME280;7822;48.146;11.576;2023-04-07T04:19:02;95034.88;;;14.58;56.92
15444;BME280;7822;48.146;11.576;2023-04-07T04:21:30;95022.75;;;14.57;56.95
15444;BME280;7822;48.146;11.576;2023-04-07T04:23:57;95027.03;;;14.58;56.95
15444;BME280;7822;48.146;11.576;2023-04-07T04:26:25;95029.63;;;14.58;56.77
15444;BME280;7822;48.146;11.576;2023-04-07T04:28:56;95019.03;;;14.59;56.79
15444;BME280;7822;48.146;11.576;2023-04-07T04:31:23;95025.09;;;14.60;57.09
15444;BME280;7822;48.146;11.576;2023-04-07T04:33:51;95026.88;;;14.59;56.92
15444;BME280;7822;48.146;11.576;2023-04-07T04:36:19;95027.69;;;14.60;56.92
15444;BME280;7822;48.146;11.576;2023-04-07T04:38:47;95025.91;;;14.60;56.90
15444;BME280;7822;48.146;11.576;2023-04-07T04:41:14;95027.81;;;14.58;56.92
15444;BME280;7822;48.146;11.576;2023-04-07T04:43:42;95023.31;;;14.60;56.93
15444;BME280;7822;48.146;11.576;2023-04-07T04:46:12;95019.88;;;14.60;57.17
15444;BME280;7822;48.146;11.576;2023-04-07T04:48:39;95013.66;;;14.61;56.88
15444;BME280;7822;48.146;11.576;2023-04-07T04:51:07;95010.25;;;14.60;56.81
15444;BME280;7822;48.146;11.576;2023-04-07T04:53:34;95017.25;;;14.60;57.00
15444;BME280;7822;48.146;11.576;2023-04-07T04:56:02;95015.47;;;14.60;56.94
15444;BME280;7822;48.146;11.576;2023-04-07T04:58:30;95012.84;;;14.60;56.92
15444;BME280;7822;48.146;11.576;2023-04-07T05:00:58;95016.25;;;14.61;56.95
15444;BME280;7822;48.146;11.576;2023-04-07T05:03:27;95005.81;;;14.61;57.00
15444;BME280;7822;48.146;11.576;2023-04-07T05:05:55;95011.03;;;14.61;56.93
15444;BME280;7822;48.146;11.576;2023-04-07T05:08:23;95010.25;;;14.60;56.95
15444;BME280;7822;48.146;11.576;2023-04-07T05:10:51;95004.19;;;14.60;56.74
15444;BME280;7822;48.146;11.576;2023-04-07T05:13:18;95003.22;;;14.61;57.02
15444;BME280;7822;48.146;11.576;2023-04-07T05:15:46;95006.81;;;14.60;56.95
15444;BME280;7822;48.146;11.576;2023-04-07T05:18:14;95012.03;;;14.60;57.07
15444;BME280;7822;48.146;11.576;2023-04-07T05:20:43;95003.22;;;14.61;57.06
15444;BME280;7822;48.146;11.576;2023-04-07T05:23:11;95005.81;;;14.61;56.77
15444;BME280;7822;48.146;11.576;2023-04-07T05:25:39;95003.88;;;14.63;56.94
15444;BME280;7822;48.146;11.576;2023-04-07T05:28:07;95000.59;;;14.61;57.02
15444;BME280;7822;48.146;11.576;2023-04-07T05:30:34;95008.44;;;14.61;57.01
15444;BME280;7822;48.146;11.576;2023-04-07T05:33:02;95013.66;;;14.61;56.99
15444;BME280;7822;48.146;11.576;2023-04-07T05:35:30;95012.84;;;14.60;56.96
15444;BME280;7822;48.146;11.576;2023-04-07T05:37:59;95005.81;;;14.61;57.13
15444;BME280;7822;48.146;11.576;2023-04-07T05:40:27;95008.31;;;14.62;56.98
15444;BME280;7822;48.146;11.576;2023-04-07T05:42:55;95002.41;;;14.60;57.03
15444;BME280;7822;48.146;11.576;2023-04-07T05:45:23;95009.25;;;14.61;56.90
15444;BME280;7822;48.146;11.576;2023-04-07T05:47:50;95008.44;;;14.61;56.91
15444;BME280;7822;48.146;11.576;2023-04-07T05:50:18;95005.03;;;14.60;57.27
15444;BME280;7822;48.146;11.576;2023-04-07T05:52:46;95006.66;;;14.61;57.00
15444;BME280;7822;48.146;11.576;2023-04-07T05:55:15;95002.25;;;14.62;57.23
15444;BME280;7822;48.146;11.576;2023-04-07T05:57:42;95005.81;;;14.61;57.02
15444;BME280;7822;48.146;11.576;2023-04-07T06:00:11;94994.59;;;14.60;57.17
15444;BME280;7822;48.146;11.576;2023-04-07T06:02:39;94995.38;;;14.61;57.17
15444;BME280;7822;48.146;11.576;2023-04-07T06:05:07;94995.38;;;14.61;57.00
15444;BME280;7822;48.146;11.576;2023-04-07T06:07:34;94986.59;;;14.62;57.04
15444;BME280;7822;48.146;11.576;2023-04-07T06:10:02;94990.97;;;14.61;57.33
15444;BME280;7822;48.146;11.576;2023-04-07T07:00:19;94965.50;;;14.55;57.29
15444;BME280;7822;48.146;11.576;2023-04-07T07:04:01;94966.31;;;14.56;57.13
15444;BME280;7822;48.146;11.576;2023-04-07T07:56:16;94971.69;;;14.54;57.38
15444;BME280;7822;48.146;11.576;2023-04-07T08:06:50;94969.69;;;14.74;57.75
15444;BME280;7822;48.146;11.576;2023-04-07T08:13:50;94961.16;;;14.64;57.51
15444;BME280;7822;48.146;11.576;2023-04-07T08:17:32;94959.66;;;14.61;57.83
15444;BME280;7822;48.146;11.576;2023-04-07T08:25:20;94961.91;;;14.56;58.00
15444;BME280;7822;48.146;11.576;2023-04-07T11:17:06;94913.66;;;13.29;52.91
15444;BME280;7822;48.146;11.576;2023-04-07T11:21:01;94912.56;;;13.31;51.96
15444;BME280;7822;48.146;11.576;2023-04-07T11:31:55;94899.97;;;13.27;50.25
15444;BME280;7822;48.146;11.576;2023-04-07T11:50:14;94888.75;;;13.44;50.99
15444;BME280;7822;48.146;11.576;2023-04-07T11:53:41;94895.59;;;13.45;49.82
15444;BME280;7822;48.146;11.576;2023-04-07T11:57:25;94891.22;;;13.46;49.60
15444;BME280;7822;48.146;11.576;2023-04-07T12:00:51;94892.34;;;13.43;49.96
15444;BME280;7822;48.146;11.576;2023-04-07T12:04:14;94891.00;;;13.39;48.26
15444;BME280;7822;48.146;11.576;2023-04-07T12:15:48;94883.09;;;13.66;51.57
15444;BME280;7822;48.146;11.576;2023-04-07T12:22:25;94884.97;;;13.74;50.94
15444;BME280;7822;48.146;11.576;2023-04-07T12:26:18;94883.19;;;13.74;51.44
15444;BME280;7822;48.146;11.576;2023-04-07T12:29:59;94888.38;;;13.74;51.32
15444;BME280;7822;48.146;11.576;2023-04-07T12:33:27;94888.00;;;13.69;49.90
15444;BME280;7822;48.146;11.576;2023-04-07T12:36:33;94881.75;;;13.62;50.18
15444;BME280;7822;48.146;11.576;2023-04-07T12:39:01;94885.47;;;13.60;49.80
15444;BME280;7822;48.146;11.576;2023-04-07T12:41:29;94882.19;;;13.58;49.22
15444;BME280;7822;48.146;11.576;2023-04-07T12:43:57;94886.22;;;13.52;49.37
15444;BME280;7822;48.146;11.576;2023-04-07T12:46:25;94887.56;;;13.56;50.13
15444;BME280;7822;48.146;11.576;2023-04-07T12:48:54;94883.19;;;13.57;49.96
15444;BME280;7822;48.146;11.576;2023-04-07T12:51:22;94885.63;;;13.58;49.77
15444;BME280;7822;48.146;11.576;2023-04-07T12:53:50;94885.25;;;13.53;49.99
15444;BME280;7822;48.146;11.576;2023-04-07T12:56:19;94885.41;;;13.52;49.67
15444;BME280;7822;48.146;11.576;2023-04-07T12:58:48;94887.03;;;13.53;50.28
15444;BME280;7822;48.146;11.576;2023-04-07T13:01:15;94885.25;;;13.53;50.38
15444;BME280;7822;48.146;11.576;2023-04-07T13:03:43;94888.84;;;13.52;50.44
15444;BME280;7822;48.146;11.576;2023-04-07T13:06:13;94886.06;;;13.54;49.91
15444;BME280;7822;48.146;11.576;2023-04-07T13:08:41;94886.38;;;13.51;50.24
15444;BME280;7822;48.146;11.576;2023-04-07T13:11:08;94888.84;;;13.52;50.47
15444;BME280;7822;48.146;11.576;2023-04-07T13:13:36;94894.19;;;13.51;49.69
15444;BME280;7822;48.146;11.576;2023-04-07T13:16:04;94892.00;;;13.46;50.18
15444;BME280;7822;48.146;11.576;2023-04-07T13:18:32;94891.06;;;13.47;50.70
15444;BME280;7822;48.146;11.576;2023-04-07T13:20:59;94891.22;;;13.46;50.39
15444;BME280;7822;48.146;11.576;2023-04-07T13:23:48;94887.13;;;13.43;50.20
15444;BME280;7822;48.146;11.576;2023-04-07T13:26:17;94893.44;;;13.41;49.83
15444;BME280;7822;48.146;11.576;2023-04-07T13:28:44;94886.28;;;13.43;50.40
15444;BME280;7822;48.146;11.576;2023-04-07T13:31:13;94891.66;;;13.41;50.55
15444;BME280;7822;48.146;11.576;2023-04-07T13:33:41;94885.63;;;13.41;50.32
15444;BME280;7822;48.146;11.576;2023-04-07T13:36:09;94885.47;;;13.42;50.66
15444;BME280;7822;48.146;11.576;2023-04-07T13:38:37;94877.97;;;13.39;50.23
15444;BME280;7822;48.146;11.576;2023-04-07T13:41:06;94885.25;;;13.35;50.15
15444;BME280;7822;48.146;11.576;2023-04-07T13:43:34;94886.50;;;13.31;50.20
15444;BME280;7822;48.146;11.576;2023-04-07T13:46:01;94881.81;;;13.35;50.90
15444;BME280;7822;48.146;11.576;2023-04-07T13:48:35;94878.41;;;13.34;50.46
15444;BME280;7822;48.146;11.576;2023-04-07T13:51:02;94885.56;;;13.32;50.61
15444;BME280;7822;48.146;11.576;2023-04-07T13:53:30;94886.50;;;13.31;51.09
15444;BME280;7822;48.146;11.576;2023-04-07T13:55:58;94887.03;;;13.35;50.84
15444;BME280;7822;48.146;11.576;2023-04-07T13:58:27;94881.00;;;13.34;49.94
15444;BME280;7822;48.146;11.576;2023-04-07T14:00:57;94887.03;;;13.35;50.41
15444;BME280;7822;48.146;11.576;2023-04-07T14:03:25;94880.03;;;13.35;50.64
15444;BME280;7822;48.146;11.576;2023-04-07T14:05:53;94888.16;;;13.32;50.57
15444;BME280;7822;48.146;11.576;2023-04-07T14:08:26;94886.06;;;13.36;51.19
15444;BME280;7822;48.146;11.576;2023-04-07T14:10:53;94891.56;;;13.33;51.17
15444;BME280;7822;48.146;11.576;2023-04-07T14:13:21;94888.28;;;13.31;50.62
15444;BME280;7822;48.146;11.576;2023-04-07T14:15:50;94887.03;;;13.35;51.45
15444;BME280;7822;48.146;11.576;2023-04-07T14:18:19;94892.63;;;13.40;51.60
15444;BME280;7822;48.146;11.576;2023-04-07T14:20:47;94895.66;;;13.35;50.98
15444;BME280;7822;48.146;11.576;2023-04-07T14:23:14;94891.56;;;13.33;50.34
15444;BME280;7822;48.146;11.576;2023-04-07T14:25:59;94894.59;;;13.28;50.19
15444;BME280;7822;48.146;11.576;2023-04-07T14:28:27;94889.03;;;13.23;49.83
15444;BME280;7822;48.146;11.576;2023-04-07T14:30:56;94886.44;;;13.23;50.76
15444;BME280;7822;48.146;11.576;2023-04-07T14:33:24;94891.50;;;13.25;50.38
15444;BME280;7822;48.146;11.576;2023-04-07T14:35:52;94885.34;;;13.26;50.57
15444;BME280;7822;48.146;11.576;2023-04-07T14:38:20;94885.34;;;13.26;50.83
15444;BME280;7822;48.146;11.576;2023-04-07T14:40:51;94882.56;;;13.27;50.00
15444;BME280;7822;48.146;11.576;2023-04-07T14:43:18;94886.00;;;13.28;50.26
15444;BME280;7822;48.146;11.576;2023-04-07T14:45:46;94893.50;;;13.31;50.80
15444;BME280;7822;48.146;11.576;2023-04-07T14:48:15;94890.22;;;13.29;50.57
15444;BME280;7822;48.146;11.576;2023-04-07T14:50:43;94888.28;;;13.31;51.32
15444;BME280;7822;48.146;11.576;2023-04-07T14:53:13;94893.50;;;13.31;50.59
15444;BME280;7822;48.146;11.576;2023-04-07T14:55:41;94893.50;;;13.31;50.72
15444;BME280;7822;48.146;11.576;2023-04-07T14:58:09;94893.00;;;13.27;50.49
15444;BME280;7822;48.146;11.576;2023-04-07T15:00:36;94885.63;;;13.23;50.94
15444;BME280;7822;48.146;11.576;2023-04-07T15:03:04;94893.94;;;13.26;51.29
15444;BME280;7822;48.146;11.576;2023-04-07T15:05:33;94893.28;;;13.24;50.78
15444;BME280;7822;48.146;11.576;2023-04-07T15:08:01;94889.56;;;13.27;51.30
15444;BME280;7822;48.146;11.576;2023-04-07T15:10:29;94896.94;;;13.31;51.55
15444;BME280;7822;48.146;11.576;2023-04-07T15:12:58;94895.44;;;13.29;50.82
15444;BME280;7822;48.146;11.576;2023-04-07T15:15:26;94896.53;;;13.26;51.32
15444;BME280;7822;48.146;11.576;2023-04-07T15:17:53;94900.41;;;13.22;50.16
15444;BME280;7822;48.146;11.576;2023-04-07T15:20:21;94903.84;;;13.23;51.17
15444;BME280;7822;48.146;11.576;2023-04-07T15:22:50;94903.34;;;13.19;50.71
15444;BME280;7822;48.146;11.576;2023-04-07T15:25:18;94903.34;;;13.19;50.87
15444;BME280;7822;48.146;11.576;2023-04-07T15:27:46;94905.22;;;13.17;51.16
15444;BME280;7822;48.146;11.576;2023-04-07T15:30:14;94902.50;;;13.19;50.93
15444;BME280;7822;48.146;11.576;2023-04-07T15:32:41;94906.06;;;13.18;50.26
15444;BME280;7822;48.146;11.576;2023-04-07T15:35:09;94907.59;;;13.11;51.04
15444;BME280;7822;48.146;11.576;2023-04-07T15:37:37;94904.88;;;13.12;51.77
15444;BME280;7822;48.146;11.576;2023-04-07T15:40:07;94906.50;;;13.13;51.39
15444;BME280;7822;48.146;11.576;2023-04-07T15:42:35;94911.44;;;13.16;51.39
15444;BME280;7822;48.146;11.576;2023-04-07T15:45:08;94908.81;;;13.16;51.31
15444;BME280;7822;48.146;11.576;2023-04-07T15:47:35;94904.56;;;13.15;51.72
15444;BME280;7822;48.146;11.576;2023-04-07T15:50:04;94911.25;;;13.18;51.55
15444;BME280;7822;48.146;11.576;2023-04-07T15:52:32;94912.09;;;13.18;51.55
15444;BME280;7822;48.146;11.576;2023-04-07T15:54:59;94908.97;;;13.15;51.20
15444;BME280;7822;48.146;11.576;2023-04-07T15:57:28;94914.47;;;13.12;50.91
15444;BME280;7822;48.146;11.576;2023-04-07T15:59:56;94920.63;;;13.11;51.31
15444;BME280;7822;48.146;11.576;2023-04-07T16:02:24;94916.00;;;13.05;51.50
15444;BME280;7822;48.146;11.576;2023-04-07T16:04:51;94921.34;;;13.03;51.47
15444;BME280;7822;48.146;11.576;2023-04-07T16:07:19;94914.47;;;13.02;51.75
15444;BME280;7822;48.146;11.576;2023-04-07T16:09:47;94921.22;;;13.05;52.31
15444;BME280;7822;48.146;11.576;2023-04-07T16:12:14;94915.47;;;13.01;51.92
15444;BME280;7822;48.146;11.576;2023-04-07T16:14:45;94921.50;;;13.02;51.41
15444;BME280;7822;48.146;11.576;2023-04-07T16:17:12;94920.00;;;12.99;51.80
15444;BME280;7822;48.146;11.576;2023-04-07T16:19:40;94924.53;;;12.97;51.95
15444;BME280;7822;48.146;11.576;2023-04-07T16:22:07;94927.66;;;13.01;51.81
15444;BME280;7822;48.146;11.576;2023-04-07T16:24:35;94933.44;;;12.95;51.58
15444;BME280;7822;48.146;11.576;2023-04-07T16:27:03;94929.06;;;12.95;52.47
15444;BME280;7822;48.146;11.576;2023-04-07T16:29:30;94928.34;;;12.93;52.20
15444;BME280;7822;48.146;11.576;2023-04-07T16:31:59;94936.03;;;12.95;52.02
15444;BME280;7822;48.146;11.576;2023-04-07T16:34:28;94937.38;;;12.99;52.49
15444;BME280;7822;48.146;11.576;2023-04-07T16:36:55;94934.78;;;12.99;52.04
15444;BME280;7822;48.146;11.576;2023-04-07T16:39:23;94940.00;;;12.99;51.90
15444;BME280;7822;48.146;11.576;2023-04-07T16:41:54;94940.94;;;12.98;51.67
15444;BME280;7822;48.146;11.576;2023-04-07T16:44:22;94943.03;;;12.94;51.71
15444;BME280;7822;48.146;11.576;2023-04-07T16:46:50;94941.53;;;12.92;51.57
15444;BME280;7822;48.146;11.576;2023-04-07T16:49:19;94948.66;;;12.90;52.18
15444;BME280;7822;48.146;11.576;2023-04-07T16:51:47;94948.94;;;12.87;52.25
15444;BME280;7822;48.146;11.576;2023-04-07T16:54:14;94950.59;;;12.88;52.16
15444;BME280;7822;48.146;11.576;2023-04-07T16:56:42;94955.94;;;12.86;51.96
15444;BME280;7822;48.146;11.576;2023-04-07T16:59:10;94951.03;;;12.83;52.67
15444;BME280;7822;48.146;11.576;2023-04-07T17:01:37;94952.94;;;12.81;52.18
15444;BME280;7822;48.146;11.576;2023-04-07T17:04:07;94963.34;;;12.81;52.08
15444;BME280;7822;48.146;11.576;2023-04-07T17:06:36;94956.13;;;12.75;51.99
15444;BME280;7822;48.146;11.576;2023-04-07T17:09:04;94959.00;;;12.72;52.50
15444;BME280;7822;48.146;11.576;2023-04-07T17:11:32;94964.88;;;12.74;52.57
15444;BME280;7822;48.146;11.576;2023-04-07T17:13:59;94965.03;;;12.73;52.58
15444;BME280;7822;48.146;11.576;2023-04-07T17:16:27;94970.25;;;12.73;52.76
15444;BME280;7822;48.146;11.576;2023-04-07T17:18:55;94959.16;;;12.71;52.67
15444;BME280;7822;48.146;11.576;2023-04-07T17:21:22;94979.16;;;12.70;52.85
15444;BME280;7822;48.146;11.576;2023-04-07T17:23:51;94976.41;;;12.72;53.50
15444;BME280;7822;48.146;11.576;2023-04-07T17:26:19;94970.91;;;12.75;53.18
15444;BME280;7822;48.146;11.576;2023-04-07T17:28:47;94979.56;;;12.75;53.56
15444;BME280;7822;48.146;11.576;2023-04-07T17:31:14;94978.06;;;12.73;53.49
15444;BME280;7822;48.146;11.576;2023-04-07T17:33:42;94980.09;;;12.69;53.49
15444;BME280;7822;48.146;11.576;2023-04-07T17:36:10;94981.78;;;12.60;53.80
15444;BME280;7822;48.146;11.576;2023-04-07T17:38:37;94986.44;;;12.57;53.97
15444;BME280;7822;48.146;11.576;2023-04-07T17:41:07;94994.81;;;12.51;54.12
15444;BME280;7822;48.146;11.576;2023-04-07T17:43:34;94988.63;;;12.52;54.07
15444;BME280;7822;48.146;11.576;2023-04-07T17:46:02;94992.06;;;12.52;54.22
15444;BME280;7822;48.146;11.576;2023-04-07T17:48:30;95001.66;;;12.52;54.25
15444;BME280;7822;48.146;11.576;2023-04-07T17:50:57;95002.63;;;12.51;54.24
15444;BME280;7822;48.146;11.576;2023-04-07T17:53:25;95006.84;;;12.52;53.98
15444;BME280;7822;48.146;11.576;2023-04-07T17:55:53;95003.97;;;12.55;54.17
15444;BME280;7822;48.146;11.576;2023-04-07T17:58:22;95011.09;;;12.53;54.32
15444;BME280;7822;48.146;11.576;2023-04-07T18:00:50;95009.31;;;12.53;55.53
15444;BME280;7822;48.146;11.576;2023-04-07T18:03:17;95015.63;;;12.51;56.22
15444;BME280;7822;48.146;11.576;2023-04-07T18:05:45;95008.25;;;12.46;56.82
15444;BME280;7822;48.146;11.576;2023-04-07T18:08:14;95017.41;;;12.41;56.83
15444;BME280;7822;48.146;11.576;2023-04-07T18:10:42;95022.09;;;12.37;56.72
15444;BME280;7822;48.146;11.576;2023-04-07T18:13:09;95026.72;;;12.34;57.00
15444;BME280;7822;48.146;11.576;2023-04-07T18:15:39;95033.03;;;12.31;56.82
15444;BME280;7822;48.146;11.576;2023-04-07T18:18:07;95037.28;;;12.32;57.18
15444;BME280;7822;48.146;11.576;2023-04-07T18:20:34;95031.81;;;12.26;56.77
15444;BME280;7822;48.146;11.576;2023-04-07T18:23:04;95037.16;;;12.24;56.64
15444;BME280;7822;48.146;11.576;2023-04-07T18:25:32;95042.47;;;12.23;57.44
15444;BME280;7822;48.146;11.576;2023-04-07T18:27:59;95044.38;;;12.21;57.08
15444;BME280;7822;48.146;11.576;2023-04-07T18:30:28;95049.19;;;12.25;57.31
15444;BME280;7822;48.146;11.576;2023-04-07T18:32:57;95047.41;;;12.26;56.97
15444;BME280;7822;48.146;11.576;2023-04-07T18:35:24;95048.78;;;12.30;57.13
15444;BME280;7822;48.146;11.576;2023-04-07T18:37:52;95054.25;;;12.27;56.85
15444;BME280;7822;48.146;11.576;2023-04-07T18:40:20;95047.81;;;12.21;56.57
15444;BME280;7822;48.146;11.576;2023-04-07T18:42:47;95062.19;;;12.16;56.84
15444;BME280;7822;48.146;11.576;2023-04-07T18:45:15;95068.50;;;12.13;56.94
15444;BME280;7822;48.146;11.576;2023-04-07T18:47:43;95074.63;;;12.12;56.73
15444;BME280;7822;48.146;11.576;2023-04-07T18:50:12;95076.84;;;12.07;57.02
15444;BME280;7822;48.146;11.576;2023-04-07T18:52:39;95071.50;;;12.09;56.91
15444;BME280;7822;48.146;11.576;2023-04-07T18:55:08;95076.84;;;12.07;57.12
15444;BME280;7822;48.146;11.576;2023-04-07T18:57:36;95074.34;;;12.06;58.02
15444;BME280;7822;48.146;11.576;2023-04-07T19:00:05;95089.13;;;12.05;58.46
15444;BME280;7822;48.146;11.576;2023-04-07T19:02:33;95085.72;;;12.05;58.58
15444;BME280;7822;48.146;11.576;2023-04-07T19:05:01;95086.00;;;12.11;58.74
15444;BME280;7822;48.146;11.576;2023-04-07T19:07:31;95090.38;;;12.11;58.67
15444;BME280;7822;48.146;11.576;2023-04-07T19:09:58;95091.47;;;12.08;58.57
15444;BME280;7822;48.146;11.576;2023-04-07T19:12:26;95096.53;;;12.00;58.79
15444;BME280;7822;48.146;11.576;2023-04-07T19:14:53;95092.97;;;11.92;58.81
15444;BME280;7822;48.146;11.576;2023-04-07T19:17:21;95100.47;;;11.95;59.48
15444;BME280;7822;48.146;11.576;2023-04-07T19:19:49;95098.84;;;12.03;58.86
15444;BME280;7822;48.146;11.576;2023-04-07T19:22:17;95100.78;;;12.11;58.74
15444;BME280;7822;48.146;11.576;2023-04-07T19:24:46;95099.28;;;12.18;58.66
15444;BME280;7822;48.146;11.576;2023-04-07T19:27:13;95099.69;;;12.13;59.17
15444;BME280;7822;48.146;11.576;2023-04-07T19:29:41;95105.84;;;12.12;58.99
15444;BME280;7822;48.146;11.576;2023-04-07T19:32:09;95104.72;;;12.05;58.69
15444;BME280;7822;48.146;11.576;2023-04-07T19:34:36;95105.94;;;11.92;59.34
15444;BME280;7822;48.146;11.576;2023-04-07T19:37:04;95107.72;;;11.91;59.52
15444;BME280;7822;48.146;11.576;2023-04-07T19:39:32;95117.84;;;11.84;59.51
15444;BME280;7822;48.146;11.576;2023-04-07T19:42:02;95107.97;;;11.88;59.73
15444;BME280;7822;48.146;11.576;2023-04-07T19:44:29;95115.53;;;11.91;59.20
15444;BME280;7822;48.146;11.576;2023-04-07T19:46:57;95128.22;;;11.94;59.40
15444;BME280;7822;48.146;11.576;2023-04-07T19:49:24;95119.34;;;11.87;59.44
15444;BME280;7822;48.146;11.576;2023-04-07T19:51:52;95125.91;;;11.91;59.32
15444;BME280;7822;48.146;11.576;2023-04-07T19:54:20;95120.47;;;12.04;59.12
15444;BME280;7822;48.146;11.576;2023-04-07T19:56:48;95129.22;;;12.12;58.62
15444;BME280;7822;48.146;11.576;2023-04-07T19:59:17;95119.13;;;12.09;58.32
15444;BME280;7822;48.146;11.576;2023-04-07T20:01:45;95128.84;;;12.07;58.68
15444;BME280;7822;48.146;11.576;2023-04-07T20:04:12;95131.56;;;12.06;58.74
15444;BME280;7822;48.146;11.576;2023-04-07T20:06:40;95127.44;;;12.03;58.78
15444;BME280;7822;48.146;11.576;2023-04-07T20:09:08;95131.41;;;11.98;59.05
15444;BME280;7822;48.146;11.576;2023-04-07T20:11:36;95128.66;;;11.89;59.28
15444;BME280;7822;48.146;11.576;2023-04-07T20:14:03;95127.41;;;11.84;59.87
15444;BME280;7822;48.146;11.576;2023-04-07T20:16:32;95133.81;;;11.80;59.87
15444;BME280;7822;48.146;11.576;2023-04-07T20:19:00;95133.25;;;11.76;59.53
15444;BME280;7822;48.146;11.576;2023-04-07T20:21:29;95133.38;;;11.75;59.87
15444;BME280;7822;48.146;11.576;2023-04-07T20:23:58;95121.91;;;11.77;59.53
15444;BME280;7822;48.146;11.576;2023-04-07T20:26:25;95130.69;;;11.86;59.69
15444;BME280;7822;48.146;11.576;2023-04-07T20:28:53;95127.16;;;11.87;59.20
15444;BME280;7822;48.146;11.576;2023-04-07T20:31:20;95133.13;;;11.78;59.83
15444;BME280;7822;48.146;11.576;2023-04-07T20:33:50;95135.19;;;11.84;59.92
15444;BME280;7822;48.146;11.576;2023-04-07T20:36:17;95134.81;;;11.88;59.50
15444;BME280;7822;48.146;11.576;2023-04-07T20:38:46;95131.13;;;11.91;59.66
15444;BME280;7822;48.146;11.576;2023-04-07T20:41:14;95137.66;;;11.85;59.49
15444;BME280;7822;48.146;11.576;2023-04-07T20:43:42;95137.50;;;11.77;60.11
15444;BME280;7822;48.146;11.576;2023-04-07T20:46:10;95144.88;;;11.72;60.20
15444;BME280;7822;48.146;11.576;2023-04-07T20:48:38;95138.03;;;11.71;60.02